Time;durP1;ratioP1;P1;durP2;ratioP2;P2;SDS_P1;SDS_P2;PMS_P1;PMS_P2;Temp;Humidity;BMP_temperature;BMP_pressure;BME280_temperature;BME280_humidity;BME280_pressure;Samples;Min_cycle;Max_cycle;Signal;HPM_P1;HPM_P2
2022/06/11 00:00:43;;;;;;;4.00;2.00;;;;;;;-148.88;73.70;75322.25;5015564;28;20026;-78
2022/06/11 00:03:08;;;;;;;5.20;2.60;;;;;;;-148.88;73.46;75320.22;5015786;28;20053;-78
2022/06/11 00:05:33;;;;;;;5.20;2.20;;;;;;;-148.88;73.11;75310.06;5031027;28;20045;-79
2022/06/11 00:07:59;;;;;;;5.45;2.22;;;;;;;-148.88;72.54;75306.00;5016080;28;20026;-78
2022/06/11 00:10:24;;;;;;;5.28;2.08;;;;;;;-148.88;72.25;75297.88;5015389;28;20030;-79
2022/06/11 00:12:50;;;;;;;6.88;2.03;;;;;;;-148.88;72.12;75293.81;5030372;28;20052;-78
2022/06/11 00:15:16;;;;;;;4.95;2.08;;;;;;;-148.88;72.30;75303.97;5015316;28;20034;-78
2022/06/11 00:17:42;;;;;;;4.88;2.25;;;;;;;-148.88;71.53;75297.88;5015335;28;20372;-79
2022/06/11 00:20:09;;;;;;;10.45;2.47;;;;;;;-148.88;71.90;75297.88;5015303;28;20056;-78
2022/06/11 00:22:35;;;;;;;6.20;2.10;;;;;;;-148.88;71.33;75293.81;5015822;28;20030;-79
2022/06/11 00:25:01;;;;;;;6.93;2.40;;;;;;;-148.88;71.26;75289.75;5014110;28;20030;-78
2022/06/11 00:27:26;;;;;;;5.10;2.33;;;;;;;-148.88;70.53;75287.72;5014205;28;20396;-78
2022/06/11 00:29:52;;;;;;;5.53;2.28;;;;;;;-148.88;70.52;75287.72;5014832;28;20053;-79
2022/06/11 00:32:18;;;;;;;5.38;2.30;;;;;;;-148.88;70.89;75291.78;5014862;28;20440;-78
2022/06/11 00:34:44;;;;;;;6.28;2.33;;;;;;;-148.88;71.12;75283.66;5016213;28;20037;-79
2022/06/11 00:37:11;;;;;;;8.43;2.53;;;;;;;-148.88;70.90;75285.69;5018933;28;20030;-79
2022/06/11 00:39:37;;;;;;;2.88;1.73;;;;;;;-148.88;71.08;75283.66;5018396;28;20037;-79
2022/06/11 00:42:13;;;;;;;7.03;2.60;;;;;;;-148.88;71.62;75293.81;5017386;28;20030;-78
2022/06/11 00:44:38;;;;;;;8.25;2.47;;;;;;;-148.88;71.23;75281.66;5018485;28;20025;-79
2022/06/11 00:47:14;;;;;;;4.45;2.35;;;;;;;-148.88;71.46;75293.81;5018410;28;20026;-78
2022/06/11 00:49:51;;;;;;;3.60;2.13;;;;;;;-148.88;71.92;75289.75;5018732;28;20084;-78
2022/06/11 00:52:24;;;;;;;4.55;2.17;;;;;;;-148.88;71.96;75285.69;5017430;28;20073;-78
2022/06/11 00:55:10;;;;;;;4.67;1.93;;;;;;;-148.88;72.55;75295.84;5017526;28;20590;-79
2022/06/11 00:57:48;;;;;;;7.90;2.20;;;;;;;-148.88;72.07;75293.81;5018718;28;20386;-79
2022/06/11 01:00:18;;;;;;;4.55;2.28;;;;;;;-148.88;72.36;75299.91;5019099;28;20030;-79
2022/06/11 01:02:47;;;;;;;5.95;2.00;;;;;;;-148.88;72.53;75306.00;5017834;28;20117;-78
2022/06/11 01:05:22;;;;;;;5.53;2.13;;;;;;;-148.88;73.07;75306.00;5014867;28;20491;-78
2022/06/11 01:08:02;;;;;;;5.50;1.95;;;;;;;-148.88;73.09;75301.94;5018010;28;20436;-78
2022/06/11 01:11:00;;;;;;;7.47;2.20;;;;;;;-148.88;73.32;75310.06;5017984;28;20022;-78
2022/06/11 01:13:38;;;;;;;5.97;2.40;;;;;;;-148.88;74.01;75308.03;5016243;28;20080;-78
2022/06/11 01:16:16;;;;;;;6.13;2.13;;;;;;;-148.88;73.01;75303.97;5017214;28;20092;-79
2022/06/11 01:18:47;;;;;;;5.18;2.08;;;;;;;-148.88;73.49;75306.00;5017447;28;20048;-79
2022/06/11 01:21:28;;;;;;;7.25;2.40;;;;;;;-148.88;72.31;75289.75;5017096;28;20026;-78
2022/06/11 01:24:25;;;;;;;7.38;2.28;;;;;;;-148.88;72.36;75293.81;5017279;28;20036;-79
2022/06/11 01:27:25;;;;;;;6.05;2.20;;;;;;;-148.88;72.56;75289.75;5017971;28;20036;-79
2022/06/11 01:29:54;;;;;;;5.28;1.80;;;;;;;-148.88;73.06;75291.78;5017437;28;20534;-79
2022/06/11 01:32:32;;;;;;;6.85;2.50;;;;;;;-148.88;73.10;75297.88;5016251;28;20033;-78
2022/06/11 01:35:19;;;;;;;6.05;2.38;;;;;;;-148.88;73.10;75297.88;5017557;28;20029;-79
2022/06/11 01:38:03;;;;;;;8.02;2.22;;;;;;;-148.88;73.32;75301.94;5016771;28;20081;-79
2022/06/11 01:40:55;;;;;;;7.75;2.00;;;;;;;-148.88;73.46;75308.03;5031368;28;20017;-78
2022/06/11 01:43:33;;;;;;;6.57;2.10;;;;;;;-148.88;73.11;75310.06;5013652;28;20026;-78
2022/06/11 01:46:01;;;;;;;6.45;2.30;;;;;;;-148.88;73.43;75310.06;5031794;28;20045;-78
2022/06/11 01:48:28;;;;;;;6.10;2.40;;;;;;;-148.88;73.29;75306.00;5016789;28;20116;-79
2022/06/11 01:51:23;;;;;;;5.03;1.92;;;;;;;-148.88;73.74;75314.13;5032045;28;20026;-78
2022/06/11 01:54:10;;;;;;;5.13;2.17;;;;;;;-148.88;73.99;75310.06;5017415;28;20053;-79
2022/06/11 01:57:21;;;;;;;7.82;2.47;;;;;;;-148.88;73.99;75312.09;5016226;28;20025;-78
2022/06/11 02:00:02;;;;;;;7.57;2.22;;;;;;;-148.88;74.30;75318.19;5032608;28;20125;-79
2022/06/11 02:02:46;;;;;;;6.47;2.40;;;;;;;-148.88;74.52;75322.25;5017520;28;20088;-79
2022/06/11 02:05:36;;;;;;;5.40;2.10;;;;;;;-148.88;74.51;75322.25;5016935;28;20105;-79
2022/06/11 02:08:13;;;;;;;4.85;2.28;;;;;;;-148.88;74.57;75330.38;5016330;28;20446;-79
2022/06/11 02:10:51;;;;;;;4.65;2.05;;;;;;;-148.88;74.56;75326.31;5016293;28;20026;-78
2022/06/11 02:13:34;;;;;;;7.18;2.40;;;;;;;-148.88;74.80;75326.31;5016651;28;20466;-79
2022/06/11 02:16:05;;;;;;;;;;;;;;;-148.88;75.16;75330.38;5016797;28;20021;-78
2022/06/11 02:18:31;;;;;;;5.13;2.38;;;;;;;-148.88;75.38;75334.44;5016009;28;20374;-78
2022/06/11 02:21:03;;;;;;;5.05;2.50;;;;;;;-148.88;76.15;75350.69;5014610;28;20482;-78
2022/06/11 02:23:35;;;;;;;5.40;2.35;;;;;;;-148.88;76.38;75346.63;5015684;28;20105;-79
2022/06/11 02:26:09;;;;;;;6.00;2.53;;;;;;;-148.88;76.76;75354.75;5015782;28;20113;-78
2022/06/11 02:28:38;;;;;;;4.75;2.60;;;;;;;-148.88;76.34;75350.69;5015858;28;20064;-78
2022/06/11 02:31:07;;;;;;;6.60;2.42;;;;;;;-148.88;76.72;75362.88;5016405;28;20033;-78
2022/06/11 02:33:35;;;;;;;7.18;2.60;;;;;;;-148.88;77.01;75366.94;5016102;28;20028;-79
2022/06/11 02:36:12;;;;;;;7.22;2.60;;;;;;;-148.88;77.95;75371.00;5016255;28;20399;-79
2022/06/11 02:38:38;;;;;;;7.22;2.72;;;;;;;-148.88;78.05;75379.13;5014420;28;20022;-79
2022/06/11 02:41:09;;;;;;;7.07;2.28;;;;;;;-148.88;77.80;75375.06;5016359;28;20086;-79
2022/06/11 02:43:34;;;;;;;6.68;2.63;;;;;;;-148.88;77.68;75375.06;5014860;28;20388;-79
2022/06/11 02:46:40;;;;;;;6.90;2.22;;;;;;;-148.88;77.83;75377.09;5014757;28;20120;-79
2022/06/11 02:48:46;;;;;;;7.20;2.83;;;;;;;-148.88;77.98;75377.09;5016149;28;20037;-78
2022/06/11 02:51:11;;;;;;;5.40;2.45;;;;;;;-148.88;78.13;75385.22;5016007;28;20025;-79
2022/06/11 02:53:36;;;;;;;7.35;2.47;;;;;;;-148.88;78.19;75383.19;5015887;28;20030;-78
2022/06/11 02:56:02;;;;;;;6.22;2.72;;;;;;;-148.88;78.63;75387.25;5014780;28;20018;-78
2022/06/11 02:58:27;;;;;;;7.43;2.75;;;;;;;-148.88;78.70;75391.31;5012748;28;20022;-78
2022/06/11 03:00:53;;;;;;;6.03;2.65;;;;;;;-148.88;78.76;75391.31;5013594;28;20013;-78
2022/06/11 03:03:18;;;;;;;7.28;3.10;;;;;;;-148.88;78.89;75399.44;5015112;28;20542;-78
2022/06/11 03:05:44;;;;;;;5.38;2.85;;;;;;;-148.88;79.17;75391.31;5014406;28;20072;-79
2022/06/11 03:08:10;;;;;;;9.45;3.15;;;;;;;-148.88;79.81;75397.41;5015453;28;20088;-79
2022/06/11 03:10:36;;;;;;;7.55;3.30;;;;;;;-148.88;79.83;75399.44;5029898;28;20025;-78
2022/06/11 03:13:02;;;;;;;9.68;3.47;;;;;;;-148.88;80.53;75409.59;5015002;28;20029;-79
2022/06/11 03:15:28;;;;;;;6.10;3.10;;;;;;;-148.88;80.50;75403.50;5015677;28;20029;-79
2022/06/11 03:17:54;;;;;;;5.60;3.10;;;;;;;-148.88;81.40;75411.63;5030507;28;20030;-78
2022/06/11 03:20:22;;;;;;;4.93;2.90;;;;;;;-148.88;81.25;75411.63;5015225;28;20026;-78
2022/06/11 03:22:49;;;;;;;7.00;3.30;;;;;;;-148.88;81.19;75413.66;5015496;28;20025;-78
2022/06/11 03:25:16;;;;;;;5.70;3.00;;;;;;;-148.88;81.56;75421.78;5027245;23;20042;-76
2022/06/11 03:27:42;;;;;;;7.20;3.00;;;;;;;-148.88;81.94;75423.81;5012346;28;20052;-76
2022/06/11 03:30:09;;;;;;;8.60;3.35;;;;;;;-148.88;82.13;75427.88;5013502;28;20065;-76
2022/06/11 03:32:35;;;;;;;5.32;3.17;;;;;;;-148.88;81.94;75429.91;5012461;28;20479;-77
2022/06/11 03:35:01;;;;;;;5.72;3.15;;;;;;;-148.88;82.30;75431.94;5012459;28;20055;-76
2022/06/11 03:37:26;;;;;;;5.45;3.00;;;;;;;-148.88;82.29;75436.00;5014211;28;20415;-77
2022/06/11 03:39:51;;;;;;;7.07;3.42;;;;;;;-148.88;83.03;75440.06;5013700;28;20084;-78
2022/06/11 03:42:18;;;;;;;7.13;3.63;;;;;;;-148.88;82.59;75442.09;5013797;28;20026;-77
2022/06/11 03:44:43;;;;;;;7.95;3.75;;;;;;;-148.88;83.27;75444.13;5014544;28;20084;-78
2022/06/11 03:47:10;;;;;;;7.72;3.88;;;;;;;-148.88;83.59;75454.28;5014558;28;20026;-78
2022/06/11 03:49:35;;;;;;;7.05;3.60;;;;;;;-148.88;83.43;75452.25;5014320;28;20029;-77
2022/06/11 03:52:01;;;;;;;10.02;4.30;;;;;;;-148.88;83.76;75456.31;5015184;28;20090;-77
2022/06/11 03:54:27;;;;;;;7.25;3.35;;;;;;;-148.88;83.08;75444.13;5015267;28;20475;-77
2022/06/11 03:56:53;;;;;;;9.10;4.13;;;;;;;-148.88;83.23;75444.13;5013866;28;20022;-77
2022/06/11 03:59:20;;;;;;;6.93;4.15;;;;;;;-148.88;84.22;75454.28;5014749;28;20037;-78
2022/06/11 04:01:47;;;;;;;6.85;3.97;;;;;;;-148.88;84.44;75456.31;5030340;28;20034;-78
2022/06/11 04:04:14;;;;;;;7.72;3.75;;;;;;;-148.88;84.41;75468.50;5016016;28;20439;-77
2022/06/11 04:06:45;;;;;;;11.18;3.75;;;;;;;-148.88;84.07;75462.41;5015308;28;20026;-77
2022/06/11 04:09:19;;;;;;;10.40;4.25;;;;;;;-148.88;85.00;75472.56;5017280;28;20030;-77
2022/06/11 04:11:45;;;;;;;7.35;3.90;;;;;;;-148.88;85.02;75474.59;5019729;28;20064;-78
2022/06/11 04:14:10;;;;;;;7.03;4.45;;;;;;;-148.88;85.41;75470.53;5035131;28;20052;-78
2022/06/11 04:16:42;;;;;;;11.48;4.53;;;;;;;-148.88;85.94;75476.63;5018142;28;20089;-77
2022/06/11 04:19:15;;;;;;;8.13;4.38;;;;;;;-148.88;86.27;75488.81;5034442;28;20048;-77
2022/06/11 04:21:41;;;;;;;7.35;4.65;;;;;;;-148.88;86.38;75498.97;5018869;28;20084;-77
2022/06/11 04:24:07;;;;;;;8.80;4.47;;;;;;;-148.88;86.82;75507.09;5019116;28;20030;-77
2022/06/11 04:26:39;;;;;;;10.30;5.10;;;;;;;-148.88;86.48;75501.00;5018089;28;20034;-78
2022/06/11 04:29:06;;;;;;;8.93;4.90;;;;;;;-148.88;86.89;75503.03;5033453;28;20022;-77
2022/06/11 04:31:33;;;;;;;13.60;5.20;;;;;;;-148.88;86.57;75494.91;5017678;28;20030;-77
2022/06/11 04:33:59;;;;;;;12.52;5.50;;;;;;;-148.88;87.20;75498.97;5017957;28;20026;-77
2022/06/11 04:36:27;;;;;;;12.93;5.30;;;;;;;-148.88;87.18;75501.00;5017322;28;20022;-77
2022/06/11 04:38:53;;;;;;;11.75;5.43;;;;;;;-148.88;87.17;75501.00;5017097;28;20041;-78
2022/06/11 04:41:20;;;;;;;10.73;5.43;;;;;;;-148.88;87.12;75501.00;5016046;28;20018;-77
2022/06/11 04:43:46;;;;;;;8.15;5.18;;;;;;;-148.88;87.01;75484.75;5017289;28;20086;-77
2022/06/11 04:46:11;;;;;;;13.73;5.15;;;;;;;-148.88;87.62;75496.94;5017454;28;20022;-77
2022/06/11 04:48:37;;;;;;;10.48;5.75;;;;;;;-148.88;88.41;75509.13;5017272;28;20038;-78
2022/06/11 04:51:03;;;;;;;9.50;5.32;;;;;;;-148.88;88.54;75513.19;5017570;28;20033;-78
2022/06/11 04:53:28;;;;;;;10.38;5.35;;;;;;;-148.88;88.82;75517.25;5016007;28;20541;-77
2022/06/11 04:55:54;;;;;;;11.27;5.50;;;;;;;-148.88;89.31;75517.25;5017386;28;20025;-78
2022/06/11 04:58:20;;;;;;;8.15;5.50;;;;;;;-148.88;89.53;75519.28;5015902;28;20037;-77
2022/06/11 05:00:45;;;;;;;10.55;5.80;;;;;;;-148.88;90.04;75521.31;5017265;28;20018;-77
2022/06/11 05:03:10;;;;;;;11.32;5.90;;;;;;;-148.88;90.05;75525.38;5016891;28;20403;-77
2022/06/11 05:05:36;;;;;;;10.85;5.95;;;;;;;-148.88;90.34;75523.34;5031780;28;20022;-77
2022/06/11 05:08:02;;;;;;;11.27;6.15;;;;;;;-148.88;90.35;75521.31;5017517;28;20395;-77
2022/06/11 05:10:31;;;;;;;10.60;6.18;;;;;;;-148.88;90.75;75525.38;5015799;28;20036;-77
2022/06/11 05:12:56;;;;;;;16.52;6.65;;;;;;;-148.88;90.92;75523.34;5017363;28;20032;-77
2022/06/11 05:15:22;;;;;;;11.45;7.00;;;;;;;-148.88;91.38;75521.31;5017003;28;20029;-78
2022/06/11 05:17:49;;;;;;;12.27;6.72;;;;;;;-148.88;90.83;75521.31;5017423;28;20026;-78
2022/06/11 05:20:18;;;;;;;13.60;7.20;;;;;;;-148.88;91.30;75517.25;5015757;28;20033;-77
2022/06/11 05:22:45;;;;;;;9.27;6.60;;;;;;;-148.88;90.24;75515.22;5031286;28;20486;-77
2022/06/11 05:25:12;;;;;;;11.52;6.47;;;;;;;-148.88;89.85;75511.16;5014348;28;20033;-77
2022/06/11 05:27:40;;;;;;;10.93;6.13;;;;;;;-148.88;89.41;75513.19;5014511;28;20033;-77
2022/06/11 05:30:15;;;;;;;10.80;6.13;;;;;;;-148.88;88.89;75513.19;5015270;28;20056;-77
2022/06/11 05:32:42;;;;;;;9.77;6.20;;;;;;;-148.88;89.02;75505.06;5015716;28;20084;-77
2022/06/11 05:35:11;;;;;;;8.43;5.75;;;;;;;-148.88;87.58;75505.06;5014303;28;20030;-78
2022/06/11 05:37:36;;;;;;;10.23;5.90;;;;;;;-148.88;87.04;75494.91;5015530;28;20053;-77
2022/06/11 05:40:05;;;;;;;8.30;4.80;;;;;;;-148.88;86.94;75484.75;5014334;28;20024;-76
2022/06/11 05:42:31;;;;;;;11.27;4.93;;;;;;;-148.88;86.13;75468.50;5015716;28;20033;-77
2022/06/11 05:44:57;;;;;;;6.22;4.03;;;;;;;-148.88;85.08;75470.53;5015042;28;20022;-77
2022/06/11 05:47:24;;;;;;;9.80;4.22;;;;;;;-148.88;84.13;75464.44;5030827;28;20025;-77
2022/06/11 05:49:54;;;;;;;6.95;3.40;;;;;;;-148.88;84.31;75464.44;5014879;28;20026;-77
2022/06/11 05:52:24;;;;;;;7.30;3.15;;;;;;;-148.88;83.94;75464.44;5014729;28;20021;-77
2022/06/11 05:54:50;;;;;;;7.78;3.58;;;;;;;-148.88;80.65;75458.34;5030269;28;20022;-77
2022/06/11 05:57:20;;;;;;;5.88;3.00;;;;;;;-148.88;80.85;75452.25;5013427;28;20114;-77
2022/06/11 05:59:49;;;;;;;7.15;3.13;;;;;;;-148.88;81.75;75452.25;5014908;28;20075;-77
2022/06/11 06:02:17;;;;;;;6.32;2.95;;;;;;;-148.88;80.67;75440.06;5014443;28;20025;-76
2022/06/11 06:04:43;;;;;;;4.65;2.78;;;;;;;-148.88;79.44;75444.13;5014395;28;20554;-76
2022/06/11 06:07:09;;;;;;;4.15;2.47;;;;;;;-148.88;80.71;75433.97;5014383;28;20157;-76
2022/06/11 06:09:35;;;;;;;4.95;2.78;;;;;;;-148.88;80.94;75429.91;5012984;28;20502;-76
2022/06/11 06:12:01;;;;;;;6.20;2.88;;;;;;;-148.88;79.97;75427.88;5014332;28;20487;-76
2022/06/11 06:14:26;;;;;;;6.25;3.03;;;;;;;-148.88;80.32;75423.81;5014572;28;20054;-76
2022/06/11 06:16:52;;;;;;;5.30;2.55;;;;;;;-148.88;80.23;75411.63;5029393;28;20111;-76
2022/06/11 06:19:17;;;;;;;7.40;2.45;;;;;;;-148.88;79.29;75423.81;5014164;28;20055;-76
2022/06/11 06:21:43;;;;;;;7.38;2.78;;;;;;;-148.88;79.26;75403.50;5014602;28;20018;-76
2022/06/11 06:24:10;;;;;;;4.88;2.10;;;;;;;-148.88;78.64;75405.53;5013579;28;20022;-76
2022/06/11 06:26:35;;;;;;;5.07;2.80;;;;;;;-148.88;78.75;75399.44;5029620;28;20029;-76
2022/06/11 06:29:01;;;;;;;4.75;2.50;;;;;;;-148.88;77.31;75395.38;5014467;28;20041;-76
2022/06/11 06:31:26;;;;;;;4.22;2.00;;;;;;;-148.88;76.62;75395.38;5014024;28;20080;-76
2022/06/11 06:33:52;;;;;;;4.13;1.98;;;;;;;-148.88;76.47;75379.13;5013661;28;20418;-76
2022/06/11 06:36:18;;;;;;;5.93;2.00;;;;;;;-148.88;75.94;75377.09;5013005;28;20022;-76
2022/06/11 06:38:44;;;;;;;4.35;1.77;;;;;;;-148.88;75.03;75377.09;5012975;28;20022;-76
2022/06/11 06:41:12;;;;;;;2.97;1.60;;;;;;;-148.88;74.08;75371.00;5013039;28;20116;-76
2022/06/11 06:43:37;;;;;;;5.03;1.80;;;;;;;-148.88;74.19;75383.19;5014178;28;20076;-76
2022/06/11 06:46:04;;;;;;;2.92;1.70;;;;;;;-148.88;74.53;75366.94;5014417;28;20018;-76
2022/06/11 06:48:29;;;;;;;3.25;1.52;;;;;;;-148.88;75.10;75358.81;5029260;28;20025;-76
2022/06/11 06:50:55;;;;;;;3.65;1.60;;;;;;;-148.88;72.72;75362.88;5029320;28;20479;-76
2022/06/11 06:53:22;;;;;;;4.53;1.38;;;;;;;-148.88;73.33;75377.09;5014073;28;20044;-76
2022/06/11 06:55:48;;;;;;;4.38;1.58;;;;;;;-148.88;72.93;75354.75;5014594;28;20382;-76
2022/06/11 06:58:15;;;;;;;3.72;1.70;;;;;;;-148.88;73.62;75354.75;5029169;28;20022;-77
2022/06/11 07:00:42;;;;;;;3.17;1.50;;;;;;;-148.88;72.95;75358.81;5013012;28;20095;-76
2022/06/11 07:03:08;;;;;;;6.22;1.90;;;;;;;-148.88;72.20;75350.69;5013969;28;20380;-76
2022/06/11 07:05:33;;;;;;;5.32;1.73;;;;;;;-148.88;72.57;75360.84;5012686;28;20505;-76
2022/06/11 07:07:59;;;;;;;5.20;1.77;;;;;;;-148.88;73.00;75344.59;5013962;28;20471;-76
2022/06/11 07:10:25;;;;;;;4.68;1.50;;;;;;;-148.88;71.28;75342.56;5013649;28;20030;-76
2022/06/11 07:12:51;;;;;;;5.63;1.67;;;;;;;-148.88;70.44;75338.50;5013734;28;20034;-76
2022/06/11 07:15:17;;;;;;;3.80;1.42;;;;;;;-148.88;71.00;75330.38;5028988;28;20026;-76
2022/06/11 07:18:08;;;;;;;5.13;1.50;;;;;;;-148.88;69.61;75324.28;5013550;28;20025;-76
2022/06/11 07:20:35;;;;;;;4.35;1.55;;;;;;;-148.88;69.45;75312.09;5013594;28;20028;-76
2022/06/11 07:23:05;;;;;;;2.65;1.20;;;;;;;-148.88;70.16;75320.22;5013606;28;20041;-76
2022/06/11 07:25:31;;;;;;;4.13;1.60;;;;;;;-148.88;69.31;75314.13;5013506;28;20116;-76
2022/06/11 07:28:02;;;;;;;5.18;1.30;;;;;;;-148.88;69.43;75303.97;5013387;28;20105;-76
2022/06/11 07:30:29;;;;;;;5.53;1.60;;;;;;;-148.88;69.66;75297.88;5013429;28;20542;-76
2022/06/11 07:32:58;;;;;;;3.90;1.50;;;;;;;-148.88;69.46;75301.94;5013486;28;20030;-76
2022/06/11 07:35:23;;;;;;;5.35;1.65;;;;;;;-148.88;70.13;75297.88;5013439;28;20032;-76
2022/06/11 07:37:50;;;;;;;3.65;1.48;;;;;;;-148.88;70.23;75297.88;5016133;28;20022;-76
2022/06/11 07:40:18;;;;;;;5.05;1.50;;;;;;;-148.88;69.64;75293.81;5014064;28;20025;-76
2022/06/11 07:42:43;;;;;;;4.45;1.70;;;;;;;-148.88;69.13;75287.72;5013354;28;20372;-76
2022/06/11 07:45:09;;;;;;;6.18;1.83;;;;;;;-148.88;70.04;75293.81;5013003;28;20057;-76
2022/06/11 07:50:18;;;;;;;;;;;;;;;-148.88;68.88;75281.66;5013692;28;20081;-76
2022/06/11 07:52:44;;;;;;;4.80;1.90;;;;;;;-148.88;68.44;75277.59;5012002;28;19909;-76
2022/06/11 07:55:10;;;;;;;5.13;1.77;;;;;;;-148.88;69.70;75273.53;5011981;28;20099;-77
2022/06/11 07:57:36;;;;;;;4.63;1.40;;;;;;;-148.88;67.58;75275.56;5028495;28;20025;-78
2022/06/11 08:00:04;;;;;;;4.30;1.70;;;;;;;-148.88;68.05;75249.16;5013205;28;20101;-76
2022/06/11 08:02:29;;;;;;;4.50;1.50;;;;;;;-148.88;67.41;75226.81;5013111;28;20025;-76
2022/06/11 08:04:54;;;;;;;3.25;1.60;;;;;;;-148.88;66.12;75210.56;5013159;28;20075;-76
2022/06/11 08:07:20;;;;;;;3.60;1.73;;;;;;;-148.88;66.65;75232.91;5014574;28;20037;-77
2022/06/11 08:09:45;;;;;;;3.83;1.75;;;;;;;-148.88;67.37;75220.72;5015722;28;20022;-77
2022/06/11 08:12:11;;;;;;;4.32;1.70;;;;;;;-148.88;67.13;75232.91;5033521;28;20037;-79
2022/06/11 08:14:36;;;;;;;4.05;1.67;;;;;;;-148.88;66.65;75249.16;5016709;28;20032;-77
2022/06/11 08:17:02;;;;;;;4.07;1.45;;;;;;;-148.88;66.47;75269.47;5015098;28;20032;-77
2022/06/11 08:19:28;;;;;;;3.38;1.65;;;;;;;-148.88;68.07;75269.47;5014443;28;20117;-77
2022/06/11 08:21:55;;;;;;;5.22;1.77;;;;;;;-148.88;67.95;75285.69;5013553;28;20026;-77
2022/06/11 08:24:21;;;;;;;3.15;1.38;;;;;;;-148.88;68.91;75253.22;5013592;28;20030;-77
2022/06/11 08:26:46;;;;;;;4.38;1.70;;;;;;;-148.88;68.45;75208.53;5013134;28;20030;-77
2022/06/11 08:29:11;;;;;;;3.67;1.50;;;;;;;-148.88;65.88;75180.09;5013040;28;20022;-77
2022/06/11 08:31:37;;;;;;;5.43;1.60;;;;;;;-148.88;65.04;75214.63;5013021;28;20080;-77
2022/06/11 08:34:04;;;;;;;5.70;1.92;;;;;;;-148.88;64.89;75212.59;5028169;28;20022;-77
2022/06/11 08:36:29;;;;;;;2.88;1.58;;;;;;;-148.88;64.96;75222.75;5028175;28;20041;-77
2022/06/11 08:38:54;;;;;;;3.13;1.50;;;;;;;-148.88;64.07;75224.78;5012950;28;20018;-77
2022/06/11 08:41:26;;;;;;;3.65;1.40;;;;;;;-148.88;66.41;75200.41;5012837;28;20029;-77
2022/06/11 08:44:12;;;;;;;4.20;1.65;;;;;;;-148.88;66.06;75192.28;5013036;28;20026;-77
2022/06/11 08:46:41;;;;;;;3.50;1.52;;;;;;;-148.88;66.36;75204.47;5013936;28;20029;-78
2022/06/11 08:49:16;;;;;;;5.10;1.40;;;;;;;-148.88;67.49;75178.06;5013282;28;20056;-77
2022/06/11 08:51:45;;;;;;;6.35;1.67;;;;;;;-148.88;67.09;75163.84;5014035;28;20022;-77
2022/06/11 08:54:20;;;;;;;6.63;1.70;;;;;;;-148.88;65.28;75149.63;5011925;28;20030;-77
2022/06/11 08:57:13;;;;;;;4.55;1.40;;;;;;;-148.88;63.52;75143.53;5030720;28;20067;-77
2022/06/11 08:59:59;;;;;;;6.78;1.48;;;;;;;-148.88;63.90;75155.72;5016822;28;20064;-77
2022/06/11 09:02:41;;;;;;;2.38;1.40;;;;;;;-148.88;64.18;75171.97;5016840;28;20064;-77
2022/06/11 09:05:31;;;;;;;4.38;1.40;;;;;;;-148.88;62.44;75190.25;5015070;28;20029;-77
2022/06/11 09:08:34;;;;;;;2.92;1.40;;;;;;;-148.88;64.62;75210.56;5014984;28;20109;-78
2022/06/11 09:11:37;;;;;;;6.00;1.43;;;;;;;-148.88;63.53;75192.28;5016435;28;20022;-77
2022/06/11 09:14:20;;;;;;;6.88;1.50;;;;;;;-148.88;62.78;75171.97;5018397;28;20025;-79
2022/06/11 09:17:04;;;;;;;5.25;1.40;;;;;;;-148.88;62.15;75169.94;5018367;28;20026;-79
2022/06/11 09:20:00;;;;;;;9.38;1.98;;;;;;;-148.88;61.23;75139.47;5018908;28;20029;-79
2022/06/11 09:22:53;;;;;;;33.58;3.30;;;;;;;-148.88;61.39;75167.91;5016543;28;20029;-77
2022/06/11 09:25:37;;;;;;;28.63;3.57;;;;;;;-148.88;62.85;75131.34;5037844;23;20080;-88
2022/06/11 09:28:42;;;;;;;4.28;1.48;;;;;;;-148.88;60.16;75139.47;5015458;28;20302;-87
2022/06/11 09:31:43;;;;;;;3.97;1.23;;;;;;;-148.88;59.73;75115.09;5010317;28;20041;-87
2022/06/11 09:34:15;;;;;;;4.05;1.30;;;;;;;-148.88;61.62;75100.88;5017112;28;20042;-87
2022/06/11 09:37:02;;;;;;;3.25;1.50;;;;;;;-148.88;61.17;75070.44;5017429;28;20416;-86
2022/06/11 09:40:07;;;;;;;4.60;1.30;;;;;;;-148.88;59.20;75070.44;5016675;28;20539;-87
2022/06/11 09:42:48;;;;;;;3.50;1.63;;;;;;;-148.88;58.77;75062.31;5014919;28;20045;-88
2022/06/11 09:45:27;;;;;;;4.10;1.40;;;;;;;-148.88;58.91;75050.13;5015554;28;20025;-86
2022/06/11 09:48:19;;;;;;;6.38;1.92;;;;;;;-148.88;58.39;74995.28;5015539;28;20026;-85
2022/06/11 09:50:50;;;;;;;4.22;1.70;;;;;;;-148.88;57.52;74977.00;5015334;28;20062;-87
2022/06/11 09:53:36;;;;;;;4.72;1.73;;;;;;;-148.88;57.69;74954.66;5015151;28;20100;-89
2022/06/11 09:56:39;;;;;;;4.93;1.55;;;;;;;-148.88;54.66;74974.97;5015046;28;20037;-86
2022/06/11 09:59:26;;;;;;;6.10;1.30;;;;;;;-148.88;52.82;74995.28;5014944;28;20089;-86
2022/06/11 10:05:00;;;;;;;5.72;1.70;;;;;;;-148.88;50.97;74952.63;5015202;28;20499;-86
2022/06/11 10:07:31;;;;;;;3.95;1.20;;;;;;;-148.88;52.51;74968.88;5015197;28;20077;-85
2022/06/11 10:10:14;;;;;;;4.82;1.10;;;;;;;-148.88;54.79;74928.28;5030620;28;20484;-85
2022/06/11 10:12:46;;;;;;;3.03;1.17;;;;;;;-148.88;49.49;74948.56;5014981;28;20444;-85
2022/06/11 10:15:20;;;;;;;2.17;0.90;;;;;;;-148.88;48.45;74944.53;5015033;28;20040;-84
2022/06/11 10:18:04;;;;;;;4.40;1.33;;;;;;;-148.88;48.71;74928.28;5014162;28;20029;-85
2022/06/11 10:20:37;;;;;;;3.60;1.02;;;;;;;-148.88;48.61;74893.75;5030845;28;20028;-82
2022/06/11 10:23:31;;;;;;;;;;;;;;;-148.88;49.85;74851.09;5015144;28;20022;-86
2022/06/11 10:26:05;;;;;;;2.97;1.00;;;;;;;-148.88;45.16;74802.38;5013716;28;20269;-86
2022/06/11 10:28:46;;;;;;;4.60;1.15;;;;;;;-148.88;47.86;74822.66;5029903;28;20040;-86
2022/06/11 10:31:20;;;;;;;4.78;1.33;;;;;;;-148.88;48.42;74775.97;5013184;28;20033;-86
2022/06/11 10:33:56;;;;;;;4.40;2.03;;;;;;;-148.88;48.46;74842.97;5016770;28;20112;-86
2022/06/11 10:36:38;;;;;;;2.13;1.00;;;;;;;-148.88;47.56;74757.69;5013761;28;20029;-86
2022/06/11 10:39:33;;;;;;;2.22;1.20;;;;;;;-148.88;47.15;74838.91;5013859;28;20034;-86
2022/06/11 10:42:07;;;;;;;5.07;1.67;;;;;;;-148.88;47.49;74883.59;5001449;28;20045;-84
2022/06/11 10:44:38;;;;;;;2.95;1.20;;;;;;;-148.88;47.44;74910.00;5014599;28;20076;-87
2022/06/11 10:47:16;;;;;;;3.35;1.10;;;;;;;-148.88;49.01;74871.41;5015249;28;20377;-86
2022/06/11 10:49:43;;;;;;;2.90;1.10;;;;;;;-148.88;47.53;74826.72;5015604;28;20384;-86
2022/06/11 10:52:44;;;;;;;2.42;1.00;;;;;;;-148.88;47.40;74832.81;5030158;28;20022;-84
2022/06/11 10:55:16;;;;;;;6.13;1.35;;;;;;;-148.88;47.48;74798.31;5015086;28;20064;-85
2022/06/11 10:57:46;;;;;;;5.32;1.40;;;;;;;-148.88;48.33;74814.53;5015664;28;20026;-82
2022/06/11 11:00:26;;;;;;;3.38;1.20;;;;;;;-148.88;48.85;74838.91;5013792;28;20376;-84
2022/06/11 11:03:03;;;;;;;4.10;1.33;;;;;;;-148.88;48.45;74832.81;5014165;28;20543;-85
2022/06/11 11:05:45;;;;;;;5.20;1.20;;;;;;;-148.88;48.37;74895.78;5013866;28;20021;-84
2022/06/11 11:08:12;;;;;;;3.45;1.00;;;;;;;-148.88;48.53;74907.97;5014361;28;20026;-85
2022/06/11 11:10:53;;;;;;;3.38;1.00;;;;;;;-148.88;48.39;74928.28;5014133;28;20040;-84
2022/06/11 11:13:40;;;;;;;3.70;1.10;;;;;;;-148.88;47.40;74895.78;5013805;28;20133;-85
2022/06/11 11:16:11;;;;;;;4.82;1.10;;;;;;;-148.88;48.39;74916.09;5013425;28;20473;-84
2022/06/11 11:18:53;;;;;;;2.53;1.00;;;;;;;-148.88;48.74;74972.94;5013456;28;20052;-83
2022/06/11 11:21:28;;;;;;;5.25;1.95;;;;;;;-148.88;50.00;74993.25;5012684;28;20025;-83
2022/06/11 11:23:58;;;;;;;2.47;1.02;;;;;;;-148.88;50.08;75005.44;5014030;28;20026;-84
2022/06/11 11:26:35;;;;;;;3.70;1.38;;;;;;;-148.88;50.33;75001.38;5013672;28;20029;-84
2022/06/11 11:29:10;;;;;;;4.25;1.30;;;;;;;-148.88;50.39;74966.84;5014061;28;20022;-85
2022/06/11 11:31:46;;;;;;;4.05;1.27;;;;;;;-148.88;47.86;74899.84;5029025;28;20022;-86
2022/06/11 11:34:23;;;;;;;2.13;1.02;;;;;;;-148.88;46.26;74842.97;5013863;28;20153;-84
2022/06/11 11:36:48;;;;;;;3.78;1.20;;;;;;;-148.88;46.83;74853.13;5014428;28;20473;-84
2022/06/11 11:39:14;;;;;;;5.55;2.08;;;;;;;-148.88;47.09;74796.28;5013368;28;20025;-85
2022/06/11 11:42:14;;;;;;;4.60;1.23;;;;;;;-148.88;47.29;74733.31;5012439;28;20026;-84
2022/06/11 11:44:51;;;;;;;4.13;1.15;;;;;;;-148.88;45.25;74708.94;5012974;28;20174;-85